sensor_id;sensor_type;location;lat;lon;timestamp;P1;durP1;ratioP1;P2;durP2;ratioP2
70800;SDS011;59616;52.170;5.386;2023-01-04T00:00:03;6.45;;;1.75;;
70800;SDS011;59616;52.170;5.386;2023-01-04T00:02:30;9.23;;;1.88;;
70800;SDS011;59616;52.170;5.386;2023-01-04T00:04:57;7.55;;;1.90;;
70800;SDS011;59616;52.170;5.386;2023-01-04T00:07:24;12.50;;;2.33;;
70800;SDS011;59616;52.170;5.386;2023-01-04T00:09:51;7.97;;;1.80;;
70800;SDS011;59616;52.170;5.386;2023-01-04T00:12:19;4.93;;;1.60;;
70800;SDS011;59616;52.170;5.386;2023-01-04T00:14:46;4.93;;;1.42;;
70800;SDS011;59616;52.170;5.386;2023-01-04T00:17:13;7.32;;;1.73;;
70800;SDS011;59616;52.170;5.386;2023-01-04T00:19:40;6.22;;;1.50;;
70800;SDS011;59616;52.170;5.386;2023-01-04T00:22:07;10.30;;;1.98;;
70800;SDS011;59616;52.170;5.386;2023-01-04T00:24:34;6.22;;;1.55;;
70800;SDS011;59616;52.170;5.386;2023-01-04T00:27:01;8.85;;;1.95;;
70800;SDS011;59616;52.170;5.386;2023-01-04T00:29:28;7.15;;;2.00;;
70800;SDS011;59616;52.170;5.386;2023-01-04T00:31:56;5.15;;;1.67;;
70800;SDS011;59616;52.170;5.386;2023-01-04T00:34:23;9.43;;;2.13;;
70800;SDS011;59616;52.170;5.386;2023-01-04T00:36:50;6.68;;;1.67;;
70800;SDS011;59616;52.170;5.386;2023-01-04T00:39:17;8.45;;;1.83;;
70800;SDS011;59616;52.170;5.386;2023-01-04T00:41:46;7.03;;;1.80;;
70800;SDS011;59616;52.170;5.386;2023-01-04T00:44:25;7.78;;;1.98;;
70800;SDS011;59616;52.170;5.386;2023-01-04T00:46:52;7.45;;;1.98;;
70800;SDS011;59616;52.170;5.386;2023-01-04T00:49:19;7.22;;;1.90;;
70800;SDS011;59616;52.170;5.386;2023-01-04T00:51:46;5.97;;;1.70;;
70800;SDS011;59616;52.170;5.386;2023-01-04T00:54:14;5.75;;;1.60;;
70800;SDS011;59616;52.170;5.386;2023-01-04T00:56:41;5.30;;;1.73;;
70800;SDS011;59616;52.170;5.386;2023-01-04T00:59:09;6.22;;;1.88;;
70800;SDS011;59616;52.170;5.386;2023-01-04T01:01:37;7.28;;;1.90;;
70800;SDS011;59616;52.170;5.386;2023-01-04T01:04:05;4.38;;;1.48;;
70800;SDS011;59616;52.170;5.386;2023-01-04T01:06:32;3.65;;;1.40;;
70800;SDS011;59616;52.170;5.386;2023-01-04T01:09:00;8.85;;;1.90;;
70800;SDS011;59616;52.170;5.386;2023-01-04T01:11:27;7.25;;;1.83;;
70800;SDS011;59616;52.170;5.386;2023-01-04T01:13:55;5.75;;;1.13;;
70800;SDS011;59616;52.170;5.386;2023-01-04T01:16:23;6.50;;;1.63;;
70800;SDS011;59616;52.170;5.386;2023-01-04T01:19:10;4.85;;;1.10;;
70800;SDS011;59616;52.170;5.386;2023-01-04T01:21:38;6.03;;;1.42;;
70800;SDS011;59616;52.170;5.386;2023-01-04T01:24:05;3.55;;;1.30;;
70800;SDS011;59616;52.170;5.386;2023-01-04T01:26:33;3.70;;;1.40;;
70800;SDS011;59616;52.170;5.386;2023-01-04T01:29:00;4.38;;;1.48;;
70800;SDS011;59616;52.170;5.386;2023-01-04T01:31:27;3.83;;;1.38;;
70800;SDS011;59616;52.170;5.386;2023-01-04T01:33:55;6.55;;;1.70;;
70800;SDS011;59616;52.170;5.386;2023-01-04T01:36:23;5.20;;;1.65;;
70800;SDS011;59616;52.170;5.386;2023-01-04T01:38:51;4.97;;;1.50;;
70800;SDS011;59616;52.170;5.386;2023-01-04T01:41:19;2.75;;;1.20;;
70800;SDS011;59616;52.170;5.386;2023-01-04T01:44:01;4.68;;;1.60;;
70800;SDS011;59616;52.170;5.386;2023-01-04T01:46:36;5.00;;;1.65;;
70800;SDS011;59616;52.170;5.386;2023-01-04T01:49:27;3.50;;;1.40;;
70800;SDS011;59616;52.170;5.386;2023-01-04T01:51:52;5.20;;;1.60;;
70800;SDS011;59616;52.170;5.386;2023-01-04T01:54:22;3.53;;;1.25;;
70800;SDS011;59616;52.170;5.386;2023-01-04T01:56:52;5.25;;;1.73;;
70800;SDS011;59616;52.170;5.386;2023-01-04T01:59:19;3.60;;;1.55;;
70800;SDS011;59616;52.170;5.386;2023-01-04T02:01:47;5.03;;;2.15;;
70800;SDS011;59616;52.170;5.386;2023-01-04T02:04:15;5.30;;;1.70;;
70800;SDS011;59616;52.170;5.386;2023-01-04T02:06:50;9.52;;;2.08;;
70800;SDS011;59616;52.170;5.386;2023-01-04T02:09:18;5.15;;;1.73;;
70800;SDS011;59616;52.170;5.386;2023-01-04T02:11:45;4.30;;;1.60;;
70800;SDS011;59616;52.170;5.386;2023-01-04T02:14:12;5.13;;;1.60;;
70800;SDS011;59616;52.170;5.386;2023-01-04T02:16:55;4.32;;;1.70;;
70800;SDS011;59616;52.170;5.386;2023-01-04T02:32:26;6.25;;;1.90;;
70800;SDS011;59616;52.170;5.386;2023-01-04T02:35:03;4.85;;;1.90;;
70800;SDS011;59616;52.170;5.386;2023-01-04T02:40:45;5.72;;;2.42;;
70800;SDS011;59616;52.170;5.386;2023-01-04T02:43:25;5.43;;;2.33;;
70800;SDS011;59616;52.170;5.386;2023-01-04T02:48:39;6.20;;;2.28;;
70800;SDS011;59616;52.170;5.386;2023-01-04T02:51:27;6.32;;;2.05;;
70800;SDS011;59616;52.170;5.386;2023-01-04T02:53:55;7.85;;;2.40;;
70800;SDS011;59616;52.170;5.386;2023-01-04T03:01:43;7.15;;;2.88;;
70800;SDS011;59616;52.170;5.386;2023-01-04T03:04:39;7.88;;;2.80;;
70800;SDS011;59616;52.170;5.386;2023-01-04T03:10:40;7.15;;;3.08;;
70800;SDS011;59616;52.170;5.386;2023-01-04T03:13:16;8.18;;;3.17;;
70800;SDS011;59616;52.170;5.386;2023-01-04T03:15:45;8.55;;;3.30;;
70800;SDS011;59616;52.170;5.386;2023-01-04T03:18:16;7.88;;;3.35;;
70800;SDS011;59616;52.170;5.386;2023-01-04T03:20:45;8.43;;;3.30;;
70800;SDS011;59616;52.170;5.386;2023-01-04T03:23:13;7.55;;;3.60;;
70800;SDS011;59616;52.170;5.386;2023-01-04T03:26:10;8.57;;;3.67;;
70800;SDS011;59616;52.170;5.386;2023-01-04T03:28:59;8.68;;;3.50;;
70800;SDS011;59616;52.170;5.386;2023-01-04T03:31:50;8.52;;;4.00;;
70800;SDS011;59616;52.170;5.386;2023-01-04T03:34:37;9.05;;;4.05;;
70800;SDS011;59616;52.170;5.386;2023-01-04T03:37:24;8.88;;;3.75;;
70800;SDS011;59616;52.170;5.386;2023-01-04T03:40:03;8.98;;;4.20;;
70800;SDS011;59616;52.170;5.386;2023-01-04T03:43:02;8.35;;;3.80;;
70800;SDS011;59616;52.170;5.386;2023-01-04T03:45:50;8.85;;;3.83;;
70800;SDS011;59616;52.170;5.386;2023-01-04T03:48:40;8.02;;;3.50;;
70800;SDS011;59616;52.170;5.386;2023-01-04T03:51:12;9.48;;;4.00;;
70800;SDS011;59616;52.170;5.386;2023-01-04T03:53:54;7.13;;;3.33;;
70800;SDS011;59616;52.170;5.386;2023-01-04T03:56:22;8.32;;;3.42;;
70800;SDS011;59616;52.170;5.386;2023-01-04T03:58:50;8.15;;;3.25;;
70800;SDS011;59616;52.170;5.386;2023-01-04T04:01:19;7.60;;;3.40;;
70800;SDS011;59616;52.170;5.386;2023-01-04T04:03:47;8.52;;;3.40;;
70800;SDS011;59616;52.170;5.386;2023-01-04T04:09:18;7.03;;;2.33;;
70800;SDS011;59616;52.170;5.386;2023-01-04T04:11:45;7.00;;;2.55;;
70800;SDS011;59616;52.170;5.386;2023-01-04T04:14:12;7.60;;;2.85;;
70800;SDS011;59616;52.170;5.386;2023-01-04T04:16:40;7.38;;;2.15;;
70800;SDS011;59616;52.170;5.386;2023-01-04T04:19:07;7.70;;;2.45;;
70800;SDS011;59616;52.170;5.386;2023-01-04T04:21:34;9.40;;;2.60;;
70800;SDS011;59616;52.170;5.386;2023-01-04T04:24:01;5.80;;;2.20;;
70800;SDS011;59616;52.170;5.386;2023-01-04T04:26:28;7.75;;;2.50;;
70800;SDS011;59616;52.170;5.386;2023-01-04T04:28:56;5.18;;;2.17;;
70800;SDS011;59616;52.170;5.386;2023-01-04T04:31:23;6.88;;;2.33;;
70800;SDS011;59616;52.170;5.386;2023-01-04T04:33:50;5.20;;;2.13;;
70800;SDS011;59616;52.170;5.386;2023-01-04T04:36:17;6.38;;;2.35;;
70800;SDS011;59616;52.170;5.386;2023-01-04T04:38:44;6.53;;;2.30;;
70800;SDS011;59616;52.170;5.386;2023-01-04T04:41:12;5.13;;;1.98;;
70800;SDS011;59616;52.170;5.386;2023-01-04T04:43:58;7.03;;;2.47;;
70800;SDS011;59616;52.170;5.386;2023-01-04T04:46:25;5.13;;;2.20;;
70800;SDS011;59616;52.170;5.386;2023-01-04T04:48:53;6.50;;;1.98;;
70800;SDS011;59616;52.170;5.386;2023-01-04T04:51:21;6.22;;;2.20;;
70800;SDS011;59616;52.170;5.386;2023-01-04T04:53:48;5.68;;;2.15;;
70800;SDS011;59616;52.170;5.386;2023-01-04T04:56:15;5.65;;;2.40;;
70800;SDS011;59616;52.170;5.386;2023-01-04T04:58:42;7.35;;;2.10;;
70800;SDS011;59616;52.170;5.386;2023-01-04T05:01:10;7.00;;;2.20;;
70800;SDS011;59616;52.170;5.386;2023-01-04T05:03:37;5.82;;;2.20;;
70800;SDS011;59616;52.170;5.386;2023-01-04T05:06:04;5.35;;;2.15;;
70800;SDS011;59616;52.170;5.386;2023-01-04T05:08:31;6.47;;;2.38;;
70800;SDS011;59616;52.170;5.386;2023-01-04T05:11:03;6.50;;;2.20;;
70800;SDS011;59616;52.170;5.386;2023-01-04T05:13:30;8.60;;;2.47;;
70800;SDS011;59616;52.170;5.386;2023-01-04T05:15:57;5.90;;;2.20;;
70800;SDS011;59616;52.170;5.386;2023-01-04T05:18:25;7.40;;;2.45;;
70800;SDS011;59616;52.170;5.386;2023-01-04T05:20:52;5.75;;;2.47;;
70800;SDS011;59616;52.170;5.386;2023-01-04T05:23:20;6.13;;;2.15;;
70800;SDS011;59616;52.170;5.386;2023-01-04T05:26:09;6.70;;;2.33;;
70800;SDS011;59616;52.170;5.386;2023-01-04T05:28:35;6.95;;;2.53;;
70800;SDS011;59616;52.170;5.386;2023-01-04T05:31:02;5.85;;;2.35;;
70800;SDS011;59616;52.170;5.386;2023-01-04T05:33:30;7.57;;;2.42;;
70800;SDS011;59616;52.170;5.386;2023-01-04T05:35:58;5.82;;;2.45;;
70800;SDS011;59616;52.170;5.386;2023-01-04T05:38:26;6.72;;;2.53;;
70800;SDS011;59616;52.170;5.386;2023-01-04T05:40:53;6.97;;;2.25;;
70800;SDS011;59616;52.170;5.386;2023-01-04T05:43:21;6.22;;;2.50;;
70800;SDS011;59616;52.170;5.386;2023-01-04T05:45:49;5.28;;;2.10;;
70800;SDS011;59616;52.170;5.386;2023-01-04T05:48:17;6.75;;;2.58;;
70800;SDS011;59616;52.170;5.386;2023-01-04T05:50:44;9.90;;;2.80;;
70800;SDS011;59616;52.170;5.386;2023-01-04T05:53:12;8.77;;;2.42;;
70800;SDS011;59616;52.170;5.386;2023-01-04T05:55:40;7.28;;;2.45;;
70800;SDS011;59616;52.170;5.386;2023-01-04T05:58:07;6.72;;;2.30;;
70800;SDS011;59616;52.170;5.386;2023-01-04T06:00:34;6.38;;;2.63;;
70800;SDS011;59616;52.170;5.386;2023-01-04T06:03:02;5.85;;;2.22;;
70800;SDS011;59616;52.170;5.386;2023-01-04T06:05:29;6.97;;;2.55;;
70800;SDS011;59616;52.170;5.386;2023-01-04T06:07:56;7.70;;;2.50;;
70800;SDS011;59616;52.170;5.386;2023-01-04T06:10:23;6.10;;;2.17;;
70800;SDS011;59616;52.170;5.386;2023-01-04T06:12:50;6.75;;;2.40;;
70800;SDS011;59616;52.170;5.386;2023-01-04T06:15:18;5.53;;;1.80;;
70800;SDS011;59616;52.170;5.386;2023-01-04T06:17:45;5.32;;;1.92;;
70800;SDS011;59616;52.170;5.386;2023-01-04T06:20:12;4.65;;;1.73;;
70800;SDS011;59616;52.170;5.386;2023-01-04T06:22:39;5.97;;;2.30;;
70800;SDS011;59616;52.170;5.386;2023-01-04T06:25:07;6.15;;;2.20;;
70800;SDS011;59616;52.170;5.386;2023-01-04T06:27:34;6.15;;;2.38;;
70800;SDS011;59616;52.170;5.386;2023-01-04T06:30:02;7.07;;;2.42;;
70800;SDS011;59616;52.170;5.386;2023-01-04T06:32:29;5.80;;;2.22;;
70800;SDS011;59616;52.170;5.386;2023-01-04T06:34:56;8.00;;;2.40;;
70800;SDS011;59616;52.170;5.386;2023-01-04T06:37:24;6.40;;;2.25;;
70800;SDS011;59616;52.170;5.386;2023-01-04T06:39:51;5.25;;;2.05;;
70800;SDS011;59616;52.170;5.386;2023-01-04T06:42:18;5.78;;;2.47;;
70800;SDS011;59616;52.170;5.386;2023-01-04T06:45:04;5.93;;;2.40;;
70800;SDS011;59616;52.170;5.386;2023-01-04T06:47:32;6.82;;;2.15;;
70800;SDS011;59616;52.170;5.386;2023-01-04T06:49:59;6.78;;;2.40;;
70800;SDS011;59616;52.170;5.386;2023-01-04T06:52:26;8.43;;;2.50;;
70800;SDS011;59616;52.170;5.386;2023-01-04T06:54:53;5.97;;;2.20;;
70800;SDS011;59616;52.170;5.386;2023-01-04T06:57:20;7.30;;;2.63;;
70800;SDS011;59616;52.170;5.386;2023-01-04T06:59:47;7.43;;;2.78;;
70800;SDS011;59616;52.170;5.386;2023-01-04T07:02:15;6.90;;;2.58;;
70800;SDS011;59616;52.170;5.386;2023-01-04T07:04:42;7.00;;;2.88;;
70800;SDS011;59616;52.170;5.386;2023-01-04T07:07:10;7.40;;;2.53;;
70800;SDS011;59616;52.170;5.386;2023-01-04T07:09:37;5.85;;;2.17;;
70800;SDS011;59616;52.170;5.386;2023-01-04T07:12:04;7.65;;;2.15;;
70800;SDS011;59616;52.170;5.386;2023-01-04T07:14:32;8.20;;;3.00;;
70800;SDS011;59616;52.170;5.386;2023-01-04T07:16:59;11.35;;;2.88;;
70800;SDS011;59616;52.170;5.386;2023-01-04T07:19:26;7.72;;;3.10;;
70800;SDS011;59616;52.170;5.386;2023-01-04T07:21:53;7.03;;;2.78;;
70800;SDS011;59616;52.170;5.386;2023-01-04T07:24:21;10.95;;;3.10;;
70800;SDS011;59616;52.170;5.386;2023-01-04T07:26:55;7.50;;;2.83;;
70800;SDS011;59616;52.170;5.386;2023-01-04T07:29:22;10.77;;;2.97;;
70800;SDS011;59616;52.170;5.386;2023-01-04T07:31:50;12.15;;;3.65;;
70800;SDS011;59616;52.170;5.386;2023-01-04T07:34:18;9.43;;;2.75;;
70800;SDS011;59616;52.170;5.386;2023-01-04T07:36:46;8.05;;;2.50;;
70800;SDS011;59616;52.170;5.386;2023-01-04T07:39:13;6.85;;;2.22;;
70800;SDS011;59616;52.170;5.386;2023-01-04T07:41:41;7.90;;;2.50;;
70800;SDS011;59616;52.170;5.386;2023-01-04T07:44:08;7.22;;;2.45;;
70800;SDS011;59616;52.170;5.386;2023-01-04T07:46:37;6.85;;;2.45;;
70800;SDS011;59616;52.170;5.386;2023-01-04T07:49:05;8.60;;;2.67;;
70800;SDS011;59616;52.170;5.386;2023-01-04T07:51:39;14.88;;;2.80;;
70800;SDS011;59616;52.170;5.386;2023-01-04T07:54:08;6.07;;;2.30;;
70800;SDS011;59616;52.170;5.386;2023-01-04T07:56:35;8.07;;;2.35;;
70800;SDS011;59616;52.170;5.386;2023-01-04T07:59:06;8.98;;;2.20;;
70800;SDS011;59616;52.170;5.386;2023-01-04T08:01:34;7.10;;;2.10;;
70800;SDS011;59616;52.170;5.386;2023-01-04T08:04:04;8.75;;;2.47;;
70800;SDS011;59616;52.170;5.386;2023-01-04T08:06:31;4.63;;;1.75;;
70800;SDS011;59616;52.170;5.386;2023-01-04T08:08:58;9.85;;;1.95;;
70800;SDS011;59616;52.170;5.386;2023-01-04T08:11:25;5.70;;;1.90;;
70800;SDS011;59616;52.170;5.386;2023-01-04T08:13:52;5.28;;;1.90;;
70800;SDS011;59616;52.170;5.386;2023-01-04T08:16:26;5.10;;;1.70;;
70800;SDS011;59616;52.170;5.386;2023-01-04T08:19:01;6.03;;;2.03;;
70800;SDS011;59616;52.170;5.386;2023-01-04T08:21:29;5.72;;;1.73;;
70800;SDS011;59616;52.170;5.386;2023-01-04T08:23:57;6.00;;;1.65;;
70800;SDS011;59616;52.170;5.386;2023-01-04T08:26:24;7.22;;;1.83;;
70800;SDS011;59616;52.170;5.386;2023-01-04T08:28:51;5.82;;;1.70;;
70800;SDS011;59616;52.170;5.386;2023-01-04T08:31:19;6.47;;;2.05;;
70800;SDS011;59616;52.170;5.386;2023-01-04T08:33:54;6.13;;;1.90;;
70800;SDS011;59616;52.170;5.386;2023-01-04T08:36:26;3.03;;;1.42;;
70800;SDS011;59616;52.170;5.386;2023-01-04T08:38:57;4.90;;;1.63;;
70800;SDS011;59616;52.170;5.386;2023-01-04T08:41:27;4.75;;;1.60;;
70800;SDS011;59616;52.170;5.386;2023-01-04T08:44:18;4.55;;;1.60;;
70800;SDS011;59616;52.170;5.386;2023-01-04T08:46:45;4.97;;;1.75;;
70800;SDS011;59616;52.170;5.386;2023-01-04T08:49:12;4.88;;;1.70;;
70800;SDS011;59616;52.170;5.386;2023-01-04T08:51:40;4.53;;;1.70;;
70800;SDS011;59616;52.170;5.386;2023-01-04T08:54:07;3.85;;;1.42;;
70800;SDS011;59616;52.170;5.386;2023-01-04T08:56:35;4.35;;;1.40;;
70800;SDS011;59616;52.170;5.386;2023-01-04T08:59:02;2.92;;;1.20;;
70800;SDS011;59616;52.170;5.386;2023-01-04T09:01:30;3.10;;;1.30;;
70800;SDS011;59616;52.170;5.386;2023-01-04T09:03:58;3.88;;;1.20;;
70800;SDS011;59616;52.170;5.386;2023-01-04T09:06:25;2.97;;;1.20;;
70800;SDS011;59616;52.170;5.386;2023-01-04T09:08:54;3.50;;;1.20;;
70800;SDS011;59616;52.170;5.386;2023-01-04T09:11:21;2.67;;;1.17;;
70800;SDS011;59616;52.170;5.386;2023-01-04T09:13:53;4.40;;;1.25;;
70800;SDS011;59616;52.170;5.386;2023-01-04T09:16:29;3.40;;;1.38;;
70800;SDS011;59616;52.170;5.386;2023-01-04T09:18:57;2.50;;;1.08;;
70800;SDS011;59616;52.170;5.386;2023-01-04T09:21:24;3.00;;;1.20;;
70800;SDS011;59616;52.170;5.386;2023-01-04T09:23:51;3.30;;;1.13;;
70800;SDS011;59616;52.170;5.386;2023-01-04T09:26:21;2.10;;;0.98;;
70800;SDS011;59616;52.170;5.386;2023-01-04T09:28:49;2.63;;;1.10;;
70800;SDS011;59616;52.170;5.386;2023-01-04T09:31:17;3.70;;;1.30;;
70800;SDS011;59616;52.170;5.386;2023-01-04T09:33:45;3.95;;;1.00;;
70800;SDS011;59616;52.170;5.386;2023-01-04T09:36:32;2.25;;;0.95;;
70800;SDS011;59616;52.170;5.386;2023-01-04T09:38:59;2.38;;;1.00;;
70800;SDS011;59616;52.170;5.386;2023-01-04T09:41:33;4.72;;;1.10;;
70800;SDS011;59616;52.170;5.386;2023-01-04T09:46:42;3.92;;;1.00;;
70800;SDS011;59616;52.170;5.386;2023-01-04T09:49:18;3.78;;;1.00;;
70800;SDS011;59616;52.170;5.386;2023-01-04T09:51:58;2.08;;;0.80;;
70800;SDS011;59616;52.170;5.386;2023-01-04T09:54:28;2.05;;;0.90;;
70800;SDS011;59616;52.170;5.386;2023-01-04T09:56:58;2.05;;;0.65;;
70800;SDS011;59616;52.170;5.386;2023-01-04T09:59:27;5.25;;;1.10;;
70800;SDS011;59616;52.170;5.386;2023-01-04T10:02:11;1.80;;;0.80;;
70800;SDS011;59616;52.170;5.386;2023-01-04T10:07:24;2.95;;;0.80;;
70800;SDS011;59616;52.170;5.386;2023-01-04T10:09:53;1.83;;;0.80;;
70800;SDS011;59616;52.170;5.386;2023-01-04T10:12:36;2.97;;;1.00;;
70800;SDS011;59616;52.170;5.386;2023-01-04T10:15:13;2.92;;;0.95;;
70800;SDS011;59616;52.170;5.386;2023-01-04T10:17:49;2.35;;;0.70;;
70800;SDS011;59616;52.170;5.386;2023-01-04T10:23:48;2.83;;;0.80;;
70800;SDS011;59616;52.170;5.386;2023-01-04T10:26:25;2.70;;;0.75;;
70800;SDS011;59616;52.170;5.386;2023-01-04T10:29:06;3.47;;;0.90;;
70800;SDS011;59616;52.170;5.386;2023-01-04T10:34:43;4.13;;;0.90;;
70800;SDS011;59616;52.170;5.386;2023-01-04T10:37:12;4.22;;;1.00;;
70800;SDS011;59616;52.170;5.386;2023-01-04T10:39:41;2.95;;;0.70;;
70800;SDS011;59616;52.170;5.386;2023-01-04T10:45:17;3.13;;;1.10;;
70800;SDS011;59616;52.170;5.386;2023-01-04T10:50:21;2.75;;;0.90;;
70800;SDS011;59616;52.170;5.386;2023-01-04T10:55:17;2.20;;;0.90;;
70800;SDS011;59616;52.170;5.386;2023-01-04T10:57:56;4.07;;;1.00;;
70800;SDS011;59616;52.170;5.386;2023-01-04T11:00:27;2.45;;;0.88;;
70800;SDS011;59616;52.170;5.386;2023-01-04T11:03:11;3.42;;;1.02;;
70800;SDS011;59616;52.170;5.386;2023-01-04T11:05:40;4.30;;;1.08;;
70800;SDS011;59616;52.170;5.386;2023-01-04T11:08:12;2.30;;;0.75;;
70800;SDS011;59616;52.170;5.386;2023-01-04T11:10:47;5.88;;;1.20;;
70800;SDS011;59616;52.170;5.386;2023-01-04T11:13:16;5.43;;;1.30;;
70800;SDS011;59616;52.170;5.386;2023-01-04T11:15:43;3.72;;;1.05;;
70800;SDS011;59616;52.170;5.386;2023-01-04T11:18:12;4.07;;;1.10;;
70800;SDS011;59616;52.170;5.386;2023-01-04T11:20:40;5.38;;;1.10;;
70800;SDS011;59616;52.170;5.386;2023-01-04T11:23:12;4.55;;;1.25;;
70800;SDS011;59616;52.170;5.386;2023-01-04T11:25:53;7.25;;;1.30;;
70800;SDS011;59616;52.170;5.386;2023-01-04T11:28:22;5.07;;;1.17;;
70800;SDS011;59616;52.170;5.386;2023-01-04T11:33:50;4.35;;;1.38;;
70800;SDS011;59616;52.170;5.386;2023-01-04T11:38:57;4.78;;;1.50;;
70800;SDS011;59616;52.170;5.386;2023-01-04T11:41:24;6.68;;;1.50;;
70800;SDS011;59616;52.170;5.386;2023-01-04T11:44:25;5.00;;;1.63;;
70800;SDS011;59616;52.170;5.386;2023-01-04T11:46:45;4.72;;;1.40;;
70800;SDS011;59616;52.170;5.386;2023-01-04T11:49:18;7.63;;;1.67;;
70800;SDS011;59616;52.170;5.386;2023-01-04T11:51:45;6.85;;;1.63;;
70800;SDS011;59616;52.170;5.386;2023-01-04T11:57:01;5.65;;;1.50;;
70800;SDS011;59616;52.170;5.386;2023-01-04T11:59:36;5.72;;;1.50;;
70800;SDS011;59616;52.170;5.386;2023-01-04T12:02:15;8.25;;;1.63;;
70800;SDS011;59616;52.170;5.386;2023-01-04T12:05:08;4.53;;;1.33;;
70800;SDS011;59616;52.170;5.386;2023-01-04T12:07:39;7.15;;;1.60;;
70800;SDS011;59616;52.170;5.386;2023-01-04T12:10:26;7.13;;;1.67;;
70800;SDS011;59616;52.170;5.386;2023-01-04T12:12:54;7.18;;;1.50;;
70800;SDS011;59616;52.170;5.386;2023-01-04T12:15:30;5.72;;;1.38;;
70800;SDS011;59616;52.170;5.386;2023-01-04T12:18:01;4.40;;;1.25;;
70800;SDS011;59616;52.170;5.386;2023-01-04T12:20:29;7.88;;;1.60;;
70800;SDS011;59616;52.170;5.386;2023-01-04T12:22:56;7.57;;;1.65;;
70800;SDS011;59616;52.170;5.386;2023-01-04T12:27:53;4.75;;;1.20;;
70800;SDS011;59616;52.170;5.386;2023-01-04T12:33:20;8.02;;;1.60;;
70800;SDS011;59616;52.170;5.386;2023-01-04T12:36:02;8.40;;;1.50;;
70800;SDS011;59616;52.170;5.386;2023-01-04T12:41:13;6.43;;;1.30;;
70800;SDS011;59616;52.170;5.386;2023-01-04T12:43:41;5.80;;;1.20;;
70800;SDS011;59616;52.170;5.386;2023-01-04T12:54:56;8.23;;;1.33;;
70800;SDS011;59616;52.170;5.386;2023-01-04T12:57:30;7.78;;;1.27;;
70800;SDS011;59616;52.170;5.386;2023-01-04T13:00:06;9.30;;;1.27;;
70800;SDS011;59616;52.170;5.386;2023-01-04T13:02:35;5.40;;;1.15;;
70800;SDS011;59616;52.170;5.386;2023-01-04T13:08:07;9.23;;;1.48;;
70800;SDS011;59616;52.170;5.386;2023-01-04T13:10:47;9.88;;;1.48;;
70800;SDS011;59616;52.170;5.386;2023-01-04T13:15:50;10.15;;;1.50;;
70800;SDS011;59616;52.170;5.386;2023-01-04T13:23:39;8.05;;;1.52;;
70800;SDS011;59616;52.170;5.386;2023-01-04T13:26:26;8.48;;;1.48;;
70800;SDS011;59616;52.170;5.386;2023-01-04T13:31:49;10.25;;;2.08;;
70800;SDS011;59616;52.170;5.386;2023-01-04T13:34:18;10.27;;;1.58;;
70800;SDS011;59616;52.170;5.386;2023-01-04T13:37:05;9.85;;;1.52;;
70800;SDS011;59616;52.170;5.386;2023-01-04T13:39:34;7.43;;;1.30;;
70800;SDS011;59616;52.170;5.386;2023-01-04T13:42:01;10.45;;;1.30;;
70800;SDS011;59616;52.170;5.386;2023-01-04T13:47:46;8.73;;;1.27;;
70800;SDS011;59616;52.170;5.386;2023-01-04T13:52:54;5.72;;;1.15;;
70800;SDS011;59616;52.170;5.386;2023-01-04T13:55:33;6.85;;;1.20;;
70800;SDS011;59616;52.170;5.386;2023-01-04T13:58:01;9.90;;;1.73;;
70800;SDS011;59616;52.170;5.386;2023-01-04T14:00:30;10.55;;;1.45;;
70800;SDS011;59616;52.170;5.386;2023-01-04T14:03:13;6.88;;;1.20;;
70800;SDS011;59616;52.170;5.386;2023-01-04T14:05:47;11.13;;;1.52;;
70800;SDS011;59616;52.170;5.386;2023-01-04T14:08:17;11.93;;;1.60;;
70800;SDS011;59616;52.170;5.386;2023-01-04T14:10:46;10.15;;;1.48;;
70800;SDS011;59616;52.170;5.386;2023-01-04T14:13:14;11.75;;;1.70;;
70800;SDS011;59616;52.170;5.386;2023-01-04T14:15:42;11.23;;;1.38;;
70800;SDS011;59616;52.170;5.386;2023-01-04T14:18:23;11.68;;;1.58;;
70800;SDS011;59616;52.170;5.386;2023-01-04T14:20:51;11.77;;;1.83;;
70800;SDS011;59616;52.170;5.386;2023-01-04T14:23:23;12.55;;;1.83;;
70800;SDS011;59616;52.170;5.386;2023-01-04T14:25:51;9.50;;;1.33;;
70800;SDS011;59616;52.170;5.386;2023-01-04T14:41:18;9.32;;;1.70;;
70800;SDS011;59616;52.170;5.386;2023-01-04T14:43:47;10.75;;;1.50;;
70800;SDS011;59616;52.170;5.386;2023-01-04T14:46:15;12.05;;;1.85;;
70800;SDS011;59616;52.170;5.386;2023-01-04T14:48:42;11.10;;;1.40;;
70800;SDS011;59616;52.170;5.386;2023-01-04T14:51:11;7.72;;;1.60;;
70800;SDS011;59616;52.170;5.386;2023-01-04T14:53:40;12.43;;;1.70;;
70800;SDS011;59616;52.170;5.386;2023-01-04T14:56:11;6.88;;;1.45;;
70800;SDS011;59616;52.170;5.386;2023-01-04T14:58:38;11.38;;;1.40;;
70800;SDS011;59616;52.170;5.386;2023-01-04T15:01:06;12.10;;;1.80;;
70800;SDS011;59616;52.170;5.386;2023-01-04T15:03:34;6.05;;;1.27;;
70800;SDS011;59616;52.170;5.386;2023-01-04T15:06:01;11.85;;;1.77;;
70800;SDS011;59616;52.170;5.386;2023-01-04T15:08:29;10.73;;;1.40;;
70800;SDS011;59616;52.170;5.386;2023-01-04T15:10:57;8.77;;;1.45;;
70800;SDS011;59616;52.170;5.386;2023-01-04T15:13:25;9.23;;;2.13;;
70800;SDS011;59616;52.170;5.386;2023-01-04T15:16:02;14.30;;;1.67;;
70800;SDS011;59616;52.170;5.386;2023-01-04T15:18:29;12.63;;;1.92;;
70800;SDS011;59616;52.170;5.386;2023-01-04T15:20:57;9.52;;;1.75;;
70800;SDS011;59616;52.170;5.386;2023-01-04T15:23:24;10.82;;;1.60;;
70800;SDS011;59616;52.170;5.386;2023-01-04T15:25:51;10.40;;;1.60;;
70800;SDS011;59616;52.170;5.386;2023-01-04T15:28:18;13.07;;;1.83;;
70800;SDS011;59616;52.170;5.386;2023-01-04T15:30:47;13.77;;;2.08;;
70800;SDS011;59616;52.170;5.386;2023-01-04T15:33:14;13.68;;;1.80;;
70800;SDS011;59616;52.170;5.386;2023-01-04T15:35:41;12.27;;;1.70;;
70800;SDS011;59616;52.170;5.386;2023-01-04T15:38:08;14.82;;;1.80;;
70800;SDS011;59616;52.170;5.386;2023-01-04T15:40:43;11.10;;;1.90;;
70800;SDS011;59616;52.170;5.386;2023-01-04T15:43:10;12.52;;;1.83;;
70800;SDS011;59616;52.170;5.386;2023-01-04T15:45:37;14.13;;;2.15;;
70800;SDS011;59616;52.170;5.386;2023-01-04T15:48:06;16.98;;;2.50;;
70800;SDS011;59616;52.170;5.386;2023-01-04T15:50:34;18.92;;;2.38;;
70800;SDS011;59616;52.170;5.386;2023-01-04T15:53:02;15.77;;;2.70;;
70800;SDS011;59616;52.170;5.386;2023-01-04T15:55:30;16.92;;;2.00;;
70800;SDS011;59616;52.170;5.386;2023-01-04T15:58:02;12.98;;;1.92;;
70800;SDS011;59616;52.170;5.386;2023-01-04T16:00:29;20.13;;;2.72;;
70800;SDS011;59616;52.170;5.386;2023-01-04T16:02:57;15.13;;;2.58;;
70800;SDS011;59616;52.170;5.386;2023-01-04T16:05:25;18.08;;;2.88;;
70800;SDS011;59616;52.170;5.386;2023-01-04T16:07:52;17.02;;;2.20;;
70800;SDS011;59616;52.170;5.386;2023-01-04T16:10:19;15.70;;;2.38;;
70800;SDS011;59616;52.170;5.386;2023-01-04T16:12:46;14.52;;;2.10;;
70800;SDS011;59616;52.170;5.386;2023-01-04T16:15:21;13.48;;;2.15;;
70800;SDS011;59616;52.170;5.386;2023-01-04T16:17:48;19.45;;;2.63;;
70800;SDS011;59616;52.170;5.386;2023-01-04T16:20:16;17.58;;;2.65;;
70800;SDS011;59616;52.170;5.386;2023-01-04T16:22:44;22.45;;;2.67;;
70800;SDS011;59616;52.170;5.386;2023-01-04T16:25:11;16.23;;;3.17;;
70800;SDS011;59616;52.170;5.386;2023-01-04T16:27:38;22.02;;;3.05;;
70800;SDS011;59616;52.170;5.386;2023-01-04T16:30:07;21.98;;;2.75;;
70800;SDS011;59616;52.170;5.386;2023-01-04T16:32:35;16.48;;;2.22;;
70800;SDS011;59616;52.170;5.386;2023-01-04T16:35:02;18.23;;;3.00;;
70800;SDS011;59616;52.170;5.386;2023-01-04T16:37:29;18.45;;;2.92;;
70800;SDS011;59616;52.170;5.386;2023-01-04T16:39:57;20.10;;;2.85;;
70800;SDS011;59616;52.170;5.386;2023-01-04T16:42:34;13.93;;;2.45;;
70800;SDS011;59616;52.170;5.386;2023-01-04T16:45:01;17.48;;;2.20;;
70800;SDS011;59616;52.170;5.386;2023-01-04T16:47:29;21.63;;;2.92;;
70800;SDS011;59616;52.170;5.386;2023-01-04T16:50:03;17.65;;;2.83;;
70800;SDS011;59616;52.170;5.386;2023-01-04T16:52:31;17.83;;;2.78;;